Wetterdaten: Montag, 18.10.2010
Datum Zeit Temp. A. Feuchte A. Luftdruck Regen Wind Richtung Richtung Sonnenschein UV Solar Windben
18.10.2010 00:00 4,6 C 85 % 1022,3 hPa 0,0 mm 0,0 km/h (0 Bft) N 0 0 min 0 UV-I 0 W/m 0,0 km/h (0 Bft)
18.10.2010 00:10 4,4 C 85 % 1022,2 hPa 0,0 mm 0,0 km/h (0 Bft) N 0 0 min 0 UV-I 0 W/m 0,0 km/h (0 Bft)
18.10.2010 00:20 4,2 C 85 % 1022,1 hPa 0,0 mm 0,0 km/h (0 Bft) N 0 0 min 0 UV-I 0 W/m 0,0 km/h (0 Bft)
18.10.2010 00:30 4,0 C 85 % 1022,2 hPa 0,0 mm 0,0 km/h (0 Bft) N 0 0 min 0 UV-I 0 W/m 0,0 km/h (0 Bft)
18.10.2010 00:40 3,8 C 85 % 1022,1 hPa 0,0 mm 0,0 km/h (0 Bft) N 0 0 min 0 UV-I 0 W/m 0,0 km/h (0 Bft)
18.10.2010 00:50 3,6 C 85 % 1022,4 hPa 0,0 mm 0,0 km/h (0 Bft) N 0 0 min 0 UV-I 0 W/m 0,0 km/h (0 Bft)
18.10.2010 01:00 3,4 C 85 % 1022,4 hPa 0,0 mm 0,0 km/h (0 Bft) N 0 0 min 0 UV-I 0 W/m 0,0 km/h (0 Bft)
18.10.2010 01:10 3,3 C 85 % 1022,4 hPa 0,0 mm 0,0 km/h (0 Bft) N 0 0 min 0 UV-I 0 W/m 0,0 km/h (0 Bft)
18.10.2010 01:20 3,1 C 86 % 1022,4 hPa 0,0 mm 0,0 km/h (0 Bft) N 0 0 min 0 UV-I 0 W/m 0,0 km/h (0 Bft)
18.10.2010 01:30 2,9 C 86 % 1022,3 hPa 0,0 mm 0,0 km/h (0 Bft) N 0 0 min 0 UV-I 0 W/m 0,0 km/h (0 Bft)
18.10.2010 01:40 2,8 C 86 % 1022,2 hPa 0,0 mm 0,0 km/h (0 Bft) N 0 0 min 0 UV-I 0 W/m 0,0 km/h (0 Bft)
18.10.2010 01:50 2,6 C 86 % 1022,2 hPa 0,0 mm 0,0 km/h (0 Bft) N 0 0 min 0 UV-I 0 W/m 0,0 km/h (0 Bft)
18.10.2010 02:00 2,5 C 86 % 1022,2 hPa 0,0 mm 0,0 km/h (0 Bft) N 0 0 min 0 UV-I 0 W/m 0,0 km/h (0 Bft)
18.10.2010 02:10 2,4 C 86 % 1022,2 hPa 0,0 mm 0,0 km/h (0 Bft) N 0 0 min 0 UV-I 0 W/m 0,0 km/h (0 Bft)
18.10.2010 02:20 2,3 C 86 % 1022,3 hPa 0,0 mm 0,0 km/h (0 Bft) N 0 0 min 0 UV-I 0 W/m 0,0 km/h (0 Bft)
18.10.2010 02:30 2,1 C 86 % 1022,3 hPa 0,0 mm 0,0 km/h (0 Bft) N 0 0 min 0 UV-I 0 W/m 0,0 km/h (0 Bft)
18.10.2010 02:40 2,0 C 86 % 1022,2 hPa 0,0 mm 0,0 km/h (0 Bft) N 0 0 min 0 UV-I 0 W/m 0,0 km/h (0 Bft)
18.10.2010 02:50 1,8 C 86 % 1022,4 hPa 0,0 mm 0,0 km/h (0 Bft) N 0 0 min 0 UV-I 0 W/m 0,0 km/h (0 Bft)
18.10.2010 03:00 1,7 C 86 % 1022,3 hPa 0,0 mm 0,0 km/h (0 Bft) O 90 0 min 0 UV-I 0 W/m 1,6 km/h (1 Bft)
18.10.2010 03:10 1,6 C 87 % 1022,2 hPa 0,0 mm 0,0 km/h (0 Bft) N 0 0 min 0 UV-I 0 W/m 0,0 km/h (0 Bft)
18.10.2010 03:20 1,4 C 86 % 1022,2 hPa 0,0 mm 0,0 km/h (0 Bft) N 0 0 min 0 UV-I 0 W/m 0,0 km/h (0 Bft)
18.10.2010 03:30 1,4 C 87 % 1022,1 hPa 0,0 mm 0,0 km/h (0 Bft) N 0 0 min 0 UV-I 0 W/m 0,0 km/h (0 Bft)
18.10.2010 03:40 1,3 C 87 % 1022,2 hPa 0,0 mm 0,0 km/h (0 Bft) N 0 0 min 0 UV-I 0 W/m 0,0 km/h (0 Bft)
18.10.2010 03:50 1,2 C 87 % 1022,1 hPa 0,0 mm 0,0 km/h (0 Bft) N 0 0 min 0 UV-I 0 W/m 0,0 km/h (0 Bft)
18.10.2010 04:00 1,1 C 87 % 1022,1 hPa 0,0 mm 0,0 km/h (0 Bft) N 0 0 min 0 UV-I 0 W/m 0,0 km/h (0 Bft)
18.10.2010 04:10 1,1 C 87 % 1022,1 hPa 0,0 mm 0,0 km/h (0 Bft) N 0 0 min 0 UV-I 0 W/m 0,0 km/h (0 Bft)
18.10.2010 04:20 1,0 C 87 % 1022,1 hPa 0,0 mm 0,0 km/h (0 Bft) N 0 0 min 0 UV-I 0 W/m 0,0 km/h (0 Bft)
18.10.2010 04:30 0,9 C 87 % 1022,0 hPa 0,0 mm 0,0 km/h (0 Bft) N 0 0 min 0 UV-I 0 W/m 0,0 km/h (0 Bft)
18.10.2010 04:40 0,8 C 87 % 1022,1 hPa 0,0 mm 0,0 km/h (0 Bft) N 0 0 min 0 UV-I 0 W/m 0,0 km/h (0 Bft)
18.10.2010 04:50 0,8 C 87 % 1022,0 hPa 0,0 mm 0,0 km/h (0 Bft) N 0 0 min 0 UV-I 0 W/m 0,0 km/h (0 Bft)
18.10.2010 05:00 0,7 C 87 % 1022,0 hPa 0,0 mm 0,0 km/h (0 Bft) N 0 0 min 0 UV-I 0 W/m 0,0 km/h (0 Bft)
18.10.2010 05:10 0,6 C 87 % 1022,0 hPa 0,0 mm 0,0 km/h (0 Bft) N 0 0 min 0 UV-I 0 W/m 0,0 km/h (0 Bft)
18.10.2010 05:20 0,6 C 88 % 1022,0 hPa 0,0 mm 0,0 km/h (0 Bft) N 0 0 min 0 UV-I 0 W/m 0,0 km/h (0 Bft)
18.10.2010 05:30 0,5 C 88 % 1022,0 hPa 0,0 mm 0,0 km/h (0 Bft) O 90 0 min 0 UV-I 0 W/m 1,6 km/h (1 Bft)
18.10.2010 05:40 0,4 C 88 % 1022,0 hPa 0,0 mm 0,0 km/h (0 Bft) N 0 0 min 0 UV-I 0 W/m 0,0 km/h (0 Bft)
18.10.2010 05:50 0,4 C 88 % 1022,0 hPa 0,0 mm 0,0 km/h (0 Bft) O 90 0 min 0 UV-I 0 W/m 3,2 km/h (1 Bft)
18.10.2010 06:00 0,4 C 88 % 1022,0 hPa 0,0 mm 0,0 km/h (0 Bft) O 90 0 min 0 UV-I 0 W/m 1,6 km/h (1 Bft)
18.10.2010 06:10 0,4 C 88 % 1022,0 hPa 0,0 mm 0,0 km/h (0 Bft) N 0 0 min 0 UV-I 0 W/m 0,0 km/h (0 Bft)
18.10.2010 06:20 0,4 C 88 % 1022,0 hPa 0,0 mm 0,0 km/h (0 Bft) N 0 0 min 0 UV-I 0 W/m 0,0 km/h (0 Bft)
18.10.2010 06:30 0,3 C 89 % 1022,1 hPa 0,0 mm 0,0 km/h (0 Bft) O 90 0 min 0 UV-I 0 W/m 1,6 km/h (1 Bft)
18.10.2010 06:40 0,4 C 89 % 1022,0 hPa 0,0 mm 0,0 km/h (0 Bft) N 0 0 min 0 UV-I 0 W/m 0,0 km/h (0 Bft)
18.10.2010 06:50 0,4 C 89 % 1022,0 hPa 0,0 mm 0,0 km/h (0 Bft) O 90 0 min 0 UV-I 0 W/m 3,2 km/h (1 Bft)
18.10.2010 07:00 0,6 C 89 % 1022,0 hPa 0,0 mm 0,0 km/h (0 Bft) O 90 0 min 0 UV-I 0 W/m 1,6 km/h (1 Bft)
18.10.2010 07:10 0,7 C 89 % 1021,9 hPa 0,0 mm 0,0 km/h (0 Bft) O 90 0 min 0 UV-I 0 W/m 3,2 km/h (1 Bft)
18.10.2010 07:20 0,8 C 90 % 1021,7 hPa 0,0 mm 1,6 km/h (1 Bft) O-SO 112 0 min 0 UV-I 0 W/m 4,8 km/h (1 Bft)
18.10.2010 07:30 0,8 C 90 % 1021,9 hPa 0,0 mm 0,0 km/h (0 Bft) O-SO 112 0 min 0 UV-I 0 W/m 1,6 km/h (1 Bft)
18.10.2010 07:40 0,8 C 90 % 1021,9 hPa 0,0 mm 0,0 km/h (0 Bft) O-SO 112 0 min 0 UV-I 0 W/m 1,6 km/h (1 Bft)
18.10.2010 07:50 0,8 C 90 % 1021,9 hPa 0,0 mm 0,0 km/h (0 Bft) N 0 0 min 0 UV-I 0 W/m 0,0 km/h (0 Bft)
18.10.2010 08:00 0,8 C 90 % 1021,7 hPa 0,0 mm 0,0 km/h (0 Bft) O-SO 103 0 min 0 UV-I 0 W/m 1,6 km/h (1 Bft)
18.10.2010 08:10 0,8 C 90 % 1021,8 hPa 0,0 mm 0,0 km/h (0 Bft) O-SO 112 0 min 0 UV-I 5 W/m 1,6 km/h (1 Bft)
18.10.2010 08:20 0,8 C 90 % 1021,9 hPa 0,0 mm 0,0 km/h (0 Bft) N 0 0 min 0 UV-I 9 W/m 0,0 km/h (0 Bft)
18.10.2010 08:30 0,9 C 90 % 1022,0 hPa 0,0 mm 0,0 km/h (0 Bft) O-SO 112 0 min 0 UV-I 9 W/m 3,2 km/h (1 Bft)
18.10.2010 08:40 1,0 C 90 % 1022,1 hPa 0,0 mm 0,0 km/h (0 Bft) O-SO 112 0 min 0 UV-I 14 W/m 1,6 km/h (1 Bft)
18.10.2010 08:50 1,1 C 90 % 1022,1 hPa 0,0 mm 0,0 km/h (0 Bft) O-SO 112 0 min 0 UV-I 21 W/m 3,2 km/h (1 Bft)
18.10.2010 09:00 1,3 C 91 % 1022,1 hPa 0,0 mm 0,0 km/h (0 Bft) O-SO 112 0 min 0 UV-I 26 W/m 1,6 km/h (1 Bft)
18.10.2010 09:10 1,4 C 91 % 1022,0 hPa 0,0 mm 0,0 km/h (0 Bft) O-SO 112 0 min 0 UV-I 40 W/m 4,8 km/h (1 Bft)
18.10.2010 09:20 1,6 C 91 % 1022,0 hPa 0,0 mm 0,0 km/h (0 Bft) O-SO 112 0 min 0 UV-I 54 W/m 4,8 km/h (1 Bft)
18.10.2010 09:30 1,8 C 91 % 1021,9 hPa 0,0 mm 1,6 km/h (1 Bft) O-SO 112 0 min 0 UV-I 84 W/m 4,8 km/h (1 Bft)
18.10.2010 09:40 2,1 C 91 % 1022,0 hPa 0,0 mm 0,0 km/h (0 Bft) O-SO 112 0 min 0 UV-I 102 W/m 3,2 km/h (1 Bft)
18.10.2010 09:50 2,3 C 91 % 1022,4 hPa 0,0 mm 0,0 km/h (0 Bft) O-SO 112 0 min 0 UV-I 83 W/m 3,2 km/h (1 Bft)
18.10.2010 10:00 2,6 C 92 % 1022,3 hPa 0,0 mm 0,0 km/h (0 Bft) O-SO 112 0 min 0 UV-I 83 W/m 1,6 km/h (1 Bft)
18.10.2010 10:10 2,8 C 91 % 1022,4 hPa 0,3 mm 0,0 km/h (0 Bft) O-SO 112 0 min 1 UV-I 120 W/m 3,2 km/h (1 Bft)
18.10.2010 10:20 3,1 C 92 % 1022,4 hPa 0,0 mm 0,0 km/h (0 Bft) O-SO 112 0 min 1 UV-I 120 W/m 1,6 km/h (1 Bft)
18.10.2010 10:30 3,3 C 92 % 1022,3 hPa 0,0 mm 0,0 km/h (0 Bft) O-SO 112 0 min 1 UV-I 97 W/m 1,6 km/h (1 Bft)
18.10.2010 10:40 3,5 C 92 % 1022,2 hPa 0,0 mm 0,0 km/h (0 Bft) O-SO 112 0 min 1 UV-I 113 W/m 1,6 km/h (1 Bft)
18.10.2010 10:50 3,8 C 92 % 1022,1 hPa 0,0 mm 0,0 km/h (0 Bft) O-SO 112 0 min 1 UV-I 120 W/m 4,8 km/h (1 Bft)
18.10.2010 11:00 4,1 C 92 % 1022,0 hPa 0,0 mm 0,0 km/h (0 Bft) S-SO 157 0 min 1 UV-I 139 W/m 8,0 km/h (2 Bft)
18.10.2010 11:10 4,3 C 92 % 1021,9 hPa 0,0 mm 1,6 km/h (1 Bft) S 180 0 min 1 UV-I 178 W/m 8,0 km/h (2 Bft)
18.10.2010 11:20 4,5 C 92 % 1021,8 hPa 0,0 mm 0,0 km/h (0 Bft) S-SO 157 0 min 1 UV-I 209 W/m 6,4 km/h (2 Bft)
18.10.2010 11:30 4,8 C 92 % 1021,8 hPa 0,0 mm 1,6 km/h (1 Bft) S-SO 157 10 min 2 UV-I 394 W/m 6,4 km/h (2 Bft)
18.10.2010 11:40 5,0 C 91 % 1021,6 hPa 0,0 mm 1,6 km/h (1 Bft) S-SO 157 10 min 2 UV-I 343 W/m 6,4 km/h (2 Bft)
18.10.2010 11:50 5,3 C 90 % 1021,6 hPa 0,0 mm 0,0 km/h (0 Bft) S-SO 157 10 min 2 UV-I 373 W/m 4,8 km/h (1 Bft)
18.10.2010 12:00 5,7 C 90 % 1021,4 hPa 0,0 mm 1,6 km/h (1 Bft) S-SO 157 10 min 2 UV-I 468 W/m 4,8 km/h (1 Bft)
18.10.2010 12:10 6,2 C 88 % 1021,4 hPa 0,0 mm 0,0 km/h (0 Bft) S-SO 157 10 min 2 UV-I 427 W/m 3,2 km/h (1 Bft)
18.10.2010 12:20 6,6 C 85 % 1021,2 hPa 0,0 mm 0,0 km/h (0 Bft) S-SO 157 10 min 2 UV-I 461 W/m 3,2 km/h (1 Bft)
18.10.2010 12:30 7,2 C 83 % 1021,1 hPa 0,0 mm 0,0 km/h (0 Bft) S-SO 157 10 min 2 UV-I 464 W/m 4,8 km/h (1 Bft)
18.10.2010 12:40 7,8 C 80 % 1020,8 hPa 0,0 mm 1,6 km/h (1 Bft) S-SO 157 10 min 2 UV-I 494 W/m 6,4 km/h (2 Bft)
18.10.2010 12:50 8,2 C 80 % 1020,6 hPa 0,0 mm 0,0 km/h (0 Bft) S-SO 157 10 min 2 UV-I 497 W/m 4,8 km/h (1 Bft)
18.10.2010 13:00 8,4 C 78 % 1020,5 hPa 0,0 mm 1,6 km/h (1 Bft) S 180 10 min 2 UV-I 385 W/m 6,4 km/h (2 Bft)
18.10.2010 13:10 8,4 C 78 % 1020,4 hPa 0,0 mm 1,6 km/h (1 Bft) S-SW 202 0 min 2 UV-I 246 W/m 6,4 km/h (2 Bft)
18.10.2010 13:20 8,4 C 77 % 1020,3 hPa 0,0 mm 3,2 km/h (1 Bft) W-SW 247 10 min 2 UV-I 563 W/m 9,7 km/h (2 Bft)
18.10.2010 13:30 8,5 C 76 % 1020,3 hPa 0,0 mm 3,2 km/h (1 Bft) W-SW 247 0 min 1 UV-I 169 W/m 8,0 km/h (2 Bft)
18.10.2010 13:40 8,3 C 76 % 1020,1 hPa 0,0 mm 3,2 km/h (1 Bft) W-SW 247 0 min 1 UV-I 151 W/m 11,3 km/h (2 Bft)
18.10.2010 13:50 8,4 C 74 % 1020,1 hPa 0,0 mm 3,2 km/h (1 Bft) W 270 0 min 1 UV-I 176 W/m 9,7 km/h (2 Bft)
18.10.2010 14:00 8,5 C 73 % 1020,0 hPa 0,0 mm 3,2 km/h (1 Bft) S-SW 202 0 min 1 UV-I 158 W/m 11,3 km/h (2 Bft)
18.10.2010 14:10 8,4 C 74 % 1019,9 hPa 0,0 mm 3,2 km/h (1 Bft) W-SW 247 0 min 1 UV-I 144 W/m 14,5 km/h (3 Bft)
18.10.2010 14:20 8,4 C 74 % 1019,8 hPa 0,0 mm 3,2 km/h (1 Bft) W 270 0 min 1 UV-I 125 W/m 9,7 km/h (2 Bft)
18.10.2010 14:30 8,4 C 74 % 1019,7 hPa 0,0 mm 3,2 km/h (1 Bft) W-SW 247 0 min 1 UV-I 105 W/m 9,7 km/h (2 Bft)
18.10.2010 14:40 8,3 C 74 % 1019,7 hPa 0,0 mm 1,6 km/h (1 Bft) W-SW 247 0 min 1 UV-I 97 W/m 6,4 km/h (2 Bft)
18.10.2010 14:50 8,3 C 75 % 1019,5 hPa 0,0 mm 1,6 km/h (1 Bft) W-SW 247 0 min 1 UV-I 109 W/m 9,7 km/h (2 Bft)
18.10.2010 15:00 8,3 C 75 % 1019,6 hPa 0,0 mm 1,6 km/h (1 Bft) W-SW 247 0 min 1 UV-I 86 W/m 9,7 km/h (2 Bft)
18.10.2010 15:10 8,3 C 75 % 1019,5 hPa 0,0 mm 4,8 km/h (1 Bft) W-SW 247 0 min 1 UV-I 79 W/m 14,5 km/h (3 Bft)
18.10.2010 15:20 8,2 C 75 % 1019,3 hPa 0,0 mm 3,2 km/h (1 Bft) W-SW 247 0 min 1 UV-I 77 W/m 12,9 km/h (3 Bft)
18.10.2010 15:30 8,1 C 75 % 1019,3 hPa 0,0 mm 3,2 km/h (1 Bft) W 270 0 min 1 UV-I 93 W/m 14,5 km/h (3 Bft)
18.10.2010 15:40 8,2 C 75 % 1019,2 hPa 0,0 mm 3,2 km/h (1 Bft) W-SW 247 0 min 1 UV-I 104 W/m 9,7 km/h (2 Bft)
18.10.2010 15:50 8,2 C 74 % 1019,1 hPa 0,0 mm 4,8 km/h (1 Bft) W 270 0 min 1 UV-I 130 W/m 14,5 km/h (3 Bft)
18.10.2010 16:00 8,2 C 74 % 1019,1 hPa 0,0 mm 2,6 km/h (1 Bft) W-SW 254 0 min 1 UV-I 93 W/m 9,7 km/h (2 Bft)
18.10.2010 16:10 8,2 C 75 % 1018,9 hPa 0,0 mm 3,2 km/h (1 Bft) W-SW 247 10 min 1 UV-I 230 W/m 14,5 km/h (3 Bft)
18.10.2010 16:20 8,4 C 74 % 1018,7 hPa 0,0 mm 3,2 km/h (1 Bft) SW 225 10 min 1 UV-I 227 W/m 11,3 km/h (2 Bft)
18.10.2010 16:30 8,6 C 74 % 1018,6 hPa 0,0 mm 3,2 km/h (1 Bft) W-SW 247 10 min 1 UV-I 243 W/m 14,5 km/h (3 Bft)
18.10.2010 16:40 8,5 C 74 % 1018,6 hPa 0,0 mm 4,8 km/h (1 Bft) W 270 10 min 1 UV-I 199 W/m 16,1 km/h (3 Bft)
18.10.2010 16:50 8,4 C 75 % 1018,5 hPa 0,0 mm 3,2 km/h (1 Bft) SW 225 10 min 1 UV-I 171 W/m 12,9 km/h (3 Bft)
18.10.2010 17:00 8,3 C 76 % 1018,5 hPa 0,0 mm 3,2 km/h (1 Bft) W-SW 247 10 min 1 UV-I 172 W/m 16,1 km/h (3 Bft)
18.10.2010 17:10 8,2 C 76 % 1018,5 hPa 0,0 mm 1,6 km/h (1 Bft) W-SW 247 10 min 1 UV-I 162 W/m 11,3 km/h (2 Bft)
18.10.2010 17:20 8,2 C 75 % 1018,4 hPa 0,0 mm 1,6 km/h (1 Bft) W-SW 247 10 min 0 UV-I 88 W/m 11,3 km/h (2 Bft)
18.10.2010 17:30 8,1 C 76 % 1018,3 hPa 0,0 mm 1,6 km/h (1 Bft) W-SW 247 10 min 0 UV-I 95 W/m 6,4 km/h (2 Bft)
18.10.2010 17:40 7,9 C 77 % 1018,3 hPa 0,0 mm 1,6 km/h (1 Bft) S-SW 202 10 min 0 UV-I 69 W/m 11,3 km/h (2 Bft)
18.10.2010 17:50 7,8 C 77 % 1018,0 hPa 0,0 mm 1,6 km/h (1 Bft) SW 225 10 min 0 UV-I 51 W/m 6,4 km/h (2 Bft)
18.10.2010 18:00 7,7 C 78 % 1018,1 hPa 0,0 mm 0,0 km/h (0 Bft) SW 225 10 min 0 UV-I 33 W/m 6,4 km/h (2 Bft)
18.10.2010 18:10 7,4 C 78 % 1018,0 hPa 0,0 mm 0,0 km/h (0 Bft) SW 225 10 min 0 UV-I 19 W/m 4,8 km/h (1 Bft)
18.10.2010 18:20 7,3 C 79 % 1018,0 hPa 0,0 mm 0,0 km/h (0 Bft) SW 225 0 min 0 UV-I 9 W/m 3,2 km/h (1 Bft)
18.10.2010 18:30 7,0 C 80 % 1017,9 hPa 0,0 mm 0,0 km/h (0 Bft) SW 225 0 min 0 UV-I 0 W/m 1,6 km/h (1 Bft)
18.10.2010 18:40 6,9 C 80 % 1017,8 hPa 0,0 mm 0,0 km/h (0 Bft) SW 225 0 min 0 UV-I 0 W/m 3,2 km/h (1 Bft)
18.10.2010 18:50 6,8 C 80 % 1017,7 hPa 0,0 mm 0,0 km/h (0 Bft) SW 225 0 min 0 UV-I 0 W/m 1,6 km/h (1 Bft)
18.10.2010 19:00 6,8 C 80 % 1017,7 hPa 0,0 mm 0,0 km/h (0 Bft) SW 225 0 min 0 UV-I 0 W/m 1,6 km/h (1 Bft)
18.10.2010 19:10 6,7 C 80 % 1017,6 hPa 0,0 mm 0,0 km/h (0 Bft) SW 225 0 min 0 UV-I 0 W/m 4,8 km/h (1 Bft)
18.10.2010 19:20 6,4 C 80 % 1017,5 hPa 0,0 mm 1,6 km/h (1 Bft) S-SW 202 0 min 0 UV-I 0 W/m 8,0 km/h (2 Bft)
18.10.2010 19:30 6,3 C 81 % 1017,2 hPa 0,0 mm 1,6 km/h (1 Bft) S-SW 202 0 min 0 UV-I 0 W/m 6,4 km/h (2 Bft)
18.10.2010 19:40 6,2 C 81 % 1017,2 hPa 0,0 mm 1,6 km/h (1 Bft) S 180 0 min 0 UV-I 0 W/m 6,4 km/h (2 Bft)
18.10.2010 19:50 6,1 C 81 % 1016,9 hPa 0,0 mm 0,0 km/h (0 Bft) S 180 0 min 0 UV-I 0 W/m 6,4 km/h (2 Bft)
18.10.2010 20:00 5,9 C 82 % 1016,9 hPa 0,0 mm 0,0 km/h (0 Bft) S-SW 202 0 min 0 UV-I 0 W/m 8,0 km/h (2 Bft)
18.10.2010 20:10 5,8 C 82 % 1016,9 hPa 0,0 mm 0,0 km/h (0 Bft) S-SW 202 0 min 0 UV-I 0 W/m 4,8 km/h (1 Bft)
18.10.2010 20:20 5,7 C 82 % 1017,0 hPa 0,0 mm 0,0 km/h (0 Bft) S-SW 202 0 min 0 UV-I 0 W/m 3,2 km/h (1 Bft)
18.10.2010 20:30 5,6 C 82 % 1016,9 hPa 0,0 mm 0,0 km/h (0 Bft) S-SW 202 0 min 0 UV-I 0 W/m 4,8 km/h (1 Bft)
18.10.2010 20:40 5,6 C 82 % 1016,7 hPa 0,0 mm 0,0 km/h (0 Bft) S-SW 202 0 min 0 UV-I 0 W/m 1,6 km/h (1 Bft)
18.10.2010 20:50 5,4 C 82 % 1016,4 hPa 0,0 mm 0,0 km/h (0 Bft) S-SW 202 0 min 0 UV-I 0 W/m 1,6 km/h (1 Bft)
18.10.2010 21:00 5,4 C 83 % 1016,2 hPa 0,0 mm 0,0 km/h (0 Bft) S-SW 202 0 min 0 UV-I 0 W/m 1,6 km/h (1 Bft)
18.10.2010 21:10 5,3 C 82 % 1016,1 hPa 0,0 mm 0,0 km/h (0 Bft) S-SW 202 0 min 0 UV-I 0 W/m 1,6 km/h (1 Bft)
18.10.2010 21:20 5,2 C 83 % 1016,2 hPa 0,0 mm 0,0 km/h (0 Bft) S-SW 202 0 min 0 UV-I 0 W/m 1,6 km/h (1 Bft)
18.10.2010 21:30 5,1 C 83 % 1015,9 hPa 0,0 mm 0,0 km/h (0 Bft) S-SW 202 0 min 0 UV-I 0 W/m 1,6 km/h (1 Bft)
18.10.2010 21:40 5,0 C 83 % 1015,6 hPa 0,0 mm 0,0 km/h (0 Bft) S-SW 202 0 min 0 UV-I 0 W/m 1,6 km/h (1 Bft)
18.10.2010 21:50 4,9 C 83 % 1015,5 hPa 0,0 mm 0,0 km/h (0 Bft) S-SW 202 0 min 0 UV-I 0 W/m 1,6 km/h (1 Bft)
18.10.2010 22:00 4,9 C 84 % 1015,3 hPa 0,0 mm 0,0 km/h (0 Bft) N 0 0 min 0 UV-I 0 W/m 0,0 km/h (0 Bft)
18.10.2010 22:10 4,8 C 84 % 1015,2 hPa 0,0 mm 0,0 km/h (0 Bft) S-SW 202 0 min 0 UV-I 0 W/m 1,6 km/h (1 Bft)
18.10.2010 22:20 4,8 C 84 % 1015,1 hPa 0,0 mm 0,0 km/h (0 Bft) S-SW 202 0 min 0 UV-I 0 W/m 3,2 km/h (1 Bft)
18.10.2010 22:30 4,8 C 85 % 1015,0 hPa 0,0 mm 0,0 km/h (0 Bft) S-SW 202 0 min 0 UV-I 0 W/m 4,8 km/h (1 Bft)
18.10.2010 22:40 4,9 C 85 % 1014,8 hPa 0,0 mm 0,0 km/h (0 Bft) S 180 0 min 0 UV-I 0 W/m 4,8 km/h (1 Bft)
18.10.2010 22:50 5,0 C 86 % 1014,7 hPa 0,0 mm 1,6 km/h (1 Bft) S 180 0 min 0 UV-I 0 W/m 6,4 km/h (2 Bft)
18.10.2010 23:00 5,2 C 86 % 1014,6 hPa 0,0 mm 1,6 km/h (1 Bft) S 180 0 min 0 UV-I 0 W/m 9,7 km/h (2 Bft)
18.10.2010 23:10 5,4 C 86 % 1014,6 hPa 0,0 mm 1,6 km/h (1 Bft) S-SW 202 0 min 0 UV-I 0 W/m 8,0 km/h (2 Bft)
18.10.2010 23:20 5,6 C 85 % 1014,5 hPa 0,0 mm 1,6 km/h (1 Bft) SW 225 0 min 0 UV-I 0 W/m 6,4 km/h (2 Bft)
18.10.2010 23:30 5,7 C 85 % 1014,3 hPa 0,0 mm 0,0 km/h (0 Bft) S-SW 202 0 min 0 UV-I 0 W/m 9,7 km/h (2 Bft)
18.10.2010 23:40 5,9 C 84 % 1014,2 hPa 0,0 mm 0,0 km/h (0 Bft) S-SW 202 0 min 0 UV-I 0 W/m 6,4 km/h (2 Bft)
18.10.2010 23:50 6,0 C 84 % 1014,0 hPa 0,0 mm 1,6 km/h (1 Bft) S-SW 202 0 min 0 UV-I 0 W/m 8,0 km/h (2 Bft)
_ Min-Zeit 06:20 14:00 23:50 - 00:00 - - - - - 00:00
Minimum _ 0,3 C 73 % 1014,0 hPa - 0,0 km/h (0 Bft) - - - - - 0,0 km/h (0 Bft)
_ Max-Zeit 16:30 10:00 00:50 10:10 15:10 - - 11:30 12:30 13:20 16:40
Maximum _ 8,7 C 92 % 1022,4 hPa 0,3 mm 4,8 km/h
W-SW (1 Bft)
- - 10 min 2 UV-I 563 W/m 16,1 km/h
W-NW (3 Bft)
Durchschnitt _ 4,5 C 84 % 1020,0 hPa #0,3 mm 0,8 km/h (0 Bft) W-SW - #4:00 h 1 UV-I 168 W/m 4,4 km/h (1 Bft)